sensor_id;sensor_type;location;lat;lon;timestamp;pressure;altitude;pressure_sealevel;temperature;humidity
42125;BME280;27787;44.594;11.046;2023-04-21T00:01:19;100749.31;;;13.95;100.00
42125;BME280;27787;44.594;11.046;2023-04-21T00:04:03;100742.25;;;13.96;100.00
42125;BME280;27787;44.594;11.046;2023-04-21T00:06:48;100740.47;;;13.92;100.00
42125;BME280;27787;44.594;11.046;2023-04-21T00:09:33;100743.13;;;13.93;100.00
42125;BME280;27787;44.594;11.046;2023-04-21T00:12:17;100740.47;;;13.92;100.00
42125;BME280;27787;44.594;11.046;2023-04-21T00:15:03;100746.72;;;13.87;100.00
42125;BME280;27787;44.594;11.046;2023-04-21T00:17:47;100745.84;;;13.84;100.00
42125;BME280;27787;44.594;11.046;2023-04-21T00:20:32;100743.22;;;13.79;100.00
42125;BME280;27787;44.594;11.046;2023-04-21T00:23:16;100735.31;;;13.72;100.00
42125;BME280;27787;44.594;11.046;2023-04-21T00:26:00;100744.19;;;13.65;100.00
42125;BME280;27787;44.594;11.046;2023-04-21T00:28:45;100738.03;;;13.61;100.00
42125;BME280;27787;44.594;11.046;2023-04-21T00:31:29;100734.53;;;13.56;100.00
42125;BME280;27787;44.594;11.046;2023-04-21T00:34:15;100739.84;;;13.56;100.00
42125;BME280;27787;44.594;11.046;2023-04-21T00:36:58;100733.63;;;13.54;100.00
42125;BME280;27787;44.594;11.046;2023-04-21T00:39:43;100735.38;;;13.60;100.00
42125;BME280;27787;44.594;11.046;2023-04-21T00:42:27;100726.47;;;13.67;100.00
42125;BME280;27787;44.594;11.046;2023-04-21T00:45:11;100733.56;;;13.71;100.00
42125;BME280;27787;44.594;11.046;2023-04-21T00:47:58;100729.09;;;13.74;100.00
42125;BME280;27787;44.594;11.046;2023-04-21T00:50:43;100729.97;;;13.76;100.00
42125;BME280;27787;44.594;11.046;2023-04-21T00:53:28;100730.88;;;13.72;100.00
42125;BME280;27787;44.594;11.046;2023-04-21T00:56:12;100724.72;;;13.69;100.00
42125;BME280;27787;44.594;11.046;2023-04-21T00:58:57;100730.94;;;13.63;100.00
42125;BME280;27787;44.594;11.046;2023-04-21T01:01:42;100724.75;;;13.61;100.00
42125;BME280;27787;44.594;11.046;2023-04-21T01:04:27;100731.84;;;13.61;100.00
42125;BME280;27787;44.594;11.046;2023-04-21T01:07:13;100737.19;;;13.54;100.00
42125;BME280;27787;44.594;11.046;2023-04-21T01:09:57;100732.78;;;13.50;100.00
42125;BME280;27787;44.594;11.046;2023-04-21T01:12:44;100735.47;;;13.44;100.00
42125;BME280;27787;44.594;11.046;2023-04-21T01:15:28;100740.81;;;13.34;100.00
42125;BME280;27787;44.594;11.046;2023-04-21T01:18:15;100739.06;;;13.28;100.00
42125;BME280;27787;44.594;11.046;2023-04-21T01:21:05;100744.41;;;13.20;100.00
42125;BME280;27787;44.594;11.046;2023-04-21T01:23:52;100741.72;;;13.17;100.00
42125;BME280;27787;44.594;11.046;2023-04-21T01:26:36;100742.59;;;13.13;100.00
42125;BME280;27787;44.594;11.046;2023-04-21T01:29:20;100752.34;;;13.08;100.00
42125;BME280;27787;44.594;11.046;2023-04-21T01:32:07;100751.47;;;13.08;100.00
42125;BME280;27787;44.594;11.046;2023-04-21T01:34:52;100739.09;;;13.11;100.00
42125;BME280;27787;44.594;11.046;2023-04-21T01:37:36;100750.59;;;13.19;100.00
42125;BME280;27787;44.594;11.046;2023-04-21T01:40:21;100742.59;;;13.25;100.00
42125;BME280;27787;44.594;11.046;2023-04-21T01:43:05;100747.00;;;13.31;100.00
42125;BME280;27787;44.594;11.046;2023-04-21T01:45:50;100743.47;;;13.34;100.00
42125;BME280;27787;44.594;11.046;2023-04-21T01:48:35;100733.75;;;13.31;100.00
42125;BME280;27787;44.594;11.046;2023-04-21T01:51:19;100739.06;;;13.31;100.00
42125;BME280;27787;44.594;11.046;2023-04-21T01:54:04;100741.69;;;13.36;100.00
42125;BME280;27787;44.594;11.046;2023-04-21T01:56:48;100738.13;;;13.40;100.00
42125;BME280;27787;44.594;11.046;2023-04-21T01:59:33;100739.88;;;13.45;100.00
42125;BME280;27787;44.594;11.046;2023-04-21T02:02:19;100744.31;;;13.43;100.00
42125;BME280;27787;44.594;11.046;2023-04-21T02:05:04;100741.66;;;13.39;100.00
42125;BME280;27787;44.594;11.046;2023-04-21T02:07:49;100740.75;;;13.40;100.00
42125;BME280;27787;44.594;11.046;2023-04-21T02:10:33;100742.56;;;13.42;100.00
42125;BME280;27787;44.594;11.046;2023-04-21T02:13:18;100741.66;;;13.45;100.00
42125;BME280;27787;44.594;11.046;2023-04-21T02:16:01;100739.88;;;13.41;100.00
42125;BME280;27787;44.594;11.046;2023-04-21T02:18:46;100747.81;;;13.47;100.00
42125;BME280;27787;44.594;11.046;2023-04-21T02:21:31;100744.25;;;13.52;100.00
42125;BME280;27787;44.594;11.046;2023-04-21T02:24:16;100745.13;;;13.57;100.00
42125;BME280;27787;44.594;11.046;2023-04-21T02:27:00;100739.81;;;13.59;100.00
42125;BME280;27787;44.594;11.046;2023-04-21T02:29:45;100745.97;;;13.64;100.00
42125;BME280;27787;44.594;11.046;2023-04-21T02:32:29;100753.03;;;13.64;100.00
42125;BME280;27787;44.594;11.046;2023-04-21T02:35:14;100748.63;;;13.63;100.00
42125;BME280;27787;44.594;11.046;2023-04-21T02:37:59;100753.06;;;13.61;100.00
42125;BME280;27787;44.594;11.046;2023-04-21T02:40:49;100751.28;;;13.60;100.00
42125;BME280;27787;44.594;11.046;2023-04-21T02:43:33;100747.72;;;13.64;100.00
42125;BME280;27787;44.594;11.046;2023-04-21T02:46:18;100746.84;;;13.68;100.00
42125;BME280;27787;44.594;11.046;2023-04-21T02:49:02;100755.66;;;13.67;100.00
42125;BME280;27787;44.594;11.046;2023-04-21T02:51:46;100748.66;;;13.56;100.00
42125;BME280;27787;44.594;11.046;2023-04-21T02:54:31;100750.50;;;13.44;100.00
42125;BME280;27787;44.594;11.046;2023-04-21T02:57:15;100747.91;;;13.32;100.00
42125;BME280;27787;44.594;11.046;2023-04-21T02:59:59;100750.56;;;13.22;100.00
42125;BME280;27787;44.594;11.046;2023-04-21T03:02:43;100752.31;;;13.14;100.00
42125;BME280;27787;44.594;11.046;2023-04-21T03:05:27;100744.41;;;13.10;100.00
42125;BME280;27787;44.594;11.046;2023-04-21T03:08:11;100747.03;;;13.10;100.00
42125;BME280;27787;44.594;11.046;2023-04-21T03:10:56;100749.69;;;13.13;100.00
42125;BME280;27787;44.594;11.046;2023-04-21T03:13:40;100743.50;;;13.21;100.00
42125;BME280;27787;44.594;11.046;2023-04-21T03:16:24;100745.28;;;13.22;100.00
42125;BME280;27787;44.594;11.046;2023-04-21T03:19:08;100753.22;;;13.24;100.00
42125;BME280;27787;44.594;11.046;2023-04-21T03:21:53;100748.78;;;13.29;100.00
42125;BME280;27787;44.594;11.046;2023-04-21T03:24:37;100756.72;;;13.34;100.00
42125;BME280;27787;44.594;11.046;2023-04-21T03:27:21;100754.03;;;13.38;100.00
42125;BME280;27787;44.594;11.046;2023-04-21T03:30:05;100742.53;;;13.45;100.00
42125;BME280;27787;44.594;11.046;2023-04-21T03:32:50;100750.44;;;13.50;100.00
42125;BME280;27787;44.594;11.046;2023-04-21T03:35:34;100752.19;;;13.52;100.00
42125;BME280;27787;44.594;11.046;2023-04-21T03:38:18;100751.31;;;13.56;100.00
42125;BME280;27787;44.594;11.046;2023-04-21T03:41:03;100753.94;;;13.60;100.00
42125;BME280;27787;44.594;11.046;2023-04-21T03:43:51;100753.94;;;13.63;100.00
42125;BME280;27787;44.594;11.046;2023-04-21T03:46:36;100758.31;;;13.67;100.00
42125;BME280;27787;44.594;11.046;2023-04-21T03:49:20;100761.88;;;13.69;100.00
42125;BME280;27787;44.594;11.046;2023-04-21T03:52:04;100764.50;;;13.70;100.00
42125;BME280;27787;44.594;11.046;2023-04-21T03:54:48;100768.94;;;13.68;100.00
42125;BME280;27787;44.594;11.046;2023-04-21T03:57:33;100767.19;;;13.63;100.00
42125;BME280;27787;44.594;11.046;2023-04-21T04:00:17;100767.16;;;13.66;100.00
42125;BME280;27787;44.594;11.046;2023-04-21T04:03:02;100767.16;;;13.64;100.00
42125;BME280;27787;44.594;11.046;2023-04-21T04:05:46;100769.84;;;13.61;100.00
42125;BME280;27787;44.594;11.046;2023-04-21T04:08:31;100768.94;;;13.65;100.00
42125;BME280;27787;44.594;11.046;2023-04-21T04:11:15;100768.03;;;13.66;100.00
42125;BME280;27787;44.594;11.046;2023-04-21T04:13:59;100772.47;;;13.69;100.00
42125;BME280;27787;44.594;11.046;2023-04-21T04:16:43;100776.00;;;13.69;100.00
42125;BME280;27787;44.594;11.046;2023-04-21T04:19:30;100776.88;;;13.71;100.00
42125;BME280;27787;44.594;11.046;2023-04-21T04:22:15;100772.44;;;13.73;100.00
42125;BME280;27787;44.594;11.046;2023-04-21T04:24:59;100774.25;;;13.70;100.00
42125;BME280;27787;44.594;11.046;2023-04-21T04:27:44;100775.16;;;13.67;100.00
42125;BME280;27787;44.594;11.046;2023-04-21T04:30:29;100781.31;;;13.69;100.00
42125;BME280;27787;44.594;11.046;2023-04-21T04:33:13;100778.66;;;13.66;100.00
42125;BME280;27787;44.594;11.046;2023-04-21T04:35:57;100783.97;;;13.65;100.00
42125;BME280;27787;44.594;11.046;2023-04-21T04:38:41;100793.72;;;13.63;100.00
42125;BME280;27787;44.594;11.046;2023-04-21T04:41:28;100786.69;;;13.52;100.00
42125;BME280;27787;44.594;11.046;2023-04-21T04:44:14;100795.53;;;13.50;100.00
42125;BME280;27787;44.594;11.046;2023-04-21T04:47:00;100792.88;;;13.51;100.00
42125;BME280;27787;44.594;11.046;2023-04-21T04:49:44;100798.19;;;13.56;100.00
42125;BME280;27787;44.594;11.046;2023-04-21T04:52:30;100794.63;;;13.60;100.00
42125;BME280;27787;44.594;11.046;2023-04-21T04:55:14;100800.75;;;13.67;100.00
42125;BME280;27787;44.594;11.046;2023-04-21T04:57:58;100790.16;;;13.70;100.00
42125;BME280;27787;44.594;11.046;2023-04-21T05:00:42;100804.28;;;13.72;100.00
42125;BME280;27787;44.594;11.046;2023-04-21T05:03:26;100800.75;;;13.73;100.00
42125;BME280;27787;44.594;11.046;2023-04-21T05:06:10;100799.84;;;13.74;100.00
42125;BME280;27787;44.594;11.046;2023-04-21T05:08:57;100804.31;;;13.70;100.00
42125;BME280;27787;44.594;11.046;2023-04-21T05:11:41;100814.94;;;13.67;100.00
42125;BME280;27787;44.594;11.046;2023-04-21T05:14:25;100814.91;;;13.66;100.00
42125;BME280;27787;44.594;11.046;2023-04-21T05:17:09;100817.59;;;13.63;100.00
42125;BME280;27787;44.594;11.046;2023-04-21T05:19:53;100822.88;;;13.63;100.00
42125;BME280;27787;44.594;11.046;2023-04-21T05:22:38;100822.88;;;13.64;100.00
42125;BME280;27787;44.594;11.046;2023-04-21T05:25:22;100827.34;;;13.57;100.00
42125;BME280;27787;44.594;11.046;2023-04-21T05:28:06;100831.78;;;13.51;100.00
42125;BME280;27787;44.594;11.046;2023-04-21T05:30:51;100830.94;;;13.43;100.00
42125;BME280;27787;44.594;11.046;2023-04-21T05:33:35;100836.25;;;13.34;100.00
42125;BME280;27787;44.594;11.046;2023-04-21T05:36:19;100838.91;;;13.24;100.00
42125;BME280;27787;44.594;11.046;2023-04-21T05:39:03;100838.91;;;13.24;100.00
42125;BME280;27787;44.594;11.046;2023-04-21T05:41:48;100845.09;;;13.28;100.00
42125;BME280;27787;44.594;11.046;2023-04-21T05:44:32;100840.69;;;13.32;100.00
42125;BME280;27787;44.594;11.046;2023-04-21T05:47:17;100840.66;;;13.38;100.00
42125;BME280;27787;44.594;11.046;2023-04-21T05:50:01;100845.97;;;13.44;100.00
42125;BME280;27787;44.594;11.046;2023-04-21T05:52:45;100838.84;;;13.49;100.00
42125;BME280;27787;44.594;11.046;2023-04-21T05:55:29;100842.41;;;13.48;100.00
42125;BME280;27787;44.594;11.046;2023-04-21T05:58:13;100844.13;;;13.53;100.00
42125;BME280;27787;44.594;11.046;2023-04-21T06:00:58;100849.44;;;13.52;100.00
42125;BME280;27787;44.594;11.046;2023-04-21T06:03:43;100849.47;;;13.55;100.00
42125;BME280;27787;44.594;11.046;2023-04-21T06:06:27;100858.28;;;13.57;100.00
42125;BME280;27787;44.594;11.046;2023-04-21T06:09:11;100852.06;;;13.61;100.00
42125;BME280;27787;44.594;11.046;2023-04-21T06:11:58;100860.88;;;13.66;100.00
42125;BME280;27787;44.594;11.046;2023-04-21T06:14:43;100858.25;;;13.65;100.00
42125;BME280;27787;44.594;11.046;2023-04-21T06:17:27;100862.69;;;13.67;100.00
42125;BME280;27787;44.594;11.046;2023-04-21T06:20:11;100860.91;;;13.63;100.00
42125;BME280;27787;44.594;11.046;2023-04-21T06:22:56;100863.56;;;13.60;100.00
42125;BME280;27787;44.594;11.046;2023-04-21T06:25:40;100864.44;;;13.62;100.00
42125;BME280;27787;44.594;11.046;2023-04-21T06:28:25;100863.53;;;13.66;100.00
42125;BME280;27787;44.594;11.046;2023-04-21T06:31:09;100865.28;;;13.75;100.00
42125;BME280;27787;44.594;11.046;2023-04-21T06:33:57;100860.84;;;13.81;100.00
42125;BME280;27787;44.594;11.046;2023-04-21T06:36:41;100864.34;;;13.88;100.00
42125;BME280;27787;44.594;11.046;2023-04-21T06:39:27;100859.00;;;13.96;100.00
42125;BME280;27787;44.594;11.046;2023-04-21T06:42:11;100852.78;;;14.00;100.00
42125;BME280;27787;44.594;11.046;2023-04-21T06:44:59;100863.41;;;14.01;100.00
42125;BME280;27787;44.594;11.046;2023-04-21T06:47:44;100863.38;;;14.06;100.00
42125;BME280;27787;44.594;11.046;2023-04-21T06:50:29;100866.91;;;14.05;100.00
42125;BME280;27787;44.594;11.046;2023-04-21T06:53:13;100863.38;;;14.07;100.00
42125;BME280;27787;44.594;11.046;2023-04-21T06:55:57;100867.78;;;14.10;100.00
42125;BME280;27787;44.594;11.046;2023-04-21T06:58:41;100864.22;;;14.12;100.00
42125;BME280;27787;44.594;11.046;2023-04-21T07:01:26;100863.34;;;14.12;100.00
42125;BME280;27787;44.594;11.046;2023-04-21T07:04:09;100872.19;;;14.11;100.00
42125;BME280;27787;44.594;11.046;2023-04-21T07:06:53;100870.44;;;14.10;100.00
42125;BME280;27787;44.594;11.046;2023-04-21T07:09:38;100871.28;;;14.13;100.00
42125;BME280;27787;44.594;11.046;2023-04-21T07:12:23;100870.41;;;14.16;100.00
42125;BME280;27787;44.594;11.046;2023-04-21T07:15:08;100873.03;;;14.16;100.00
42125;BME280;27787;44.594;11.046;2023-04-21T07:17:52;100877.47;;;14.20;100.00
42125;BME280;27787;44.594;11.046;2023-04-21T07:20:36;100876.56;;;14.21;100.00
42125;BME280;27787;44.594;11.046;2023-04-21T07:23:21;100879.25;;;14.20;100.00
42125;BME280;27787;44.594;11.046;2023-04-21T07:26:05;100881.88;;;14.23;100.00
42125;BME280;27787;44.594;11.046;2023-04-21T07:28:49;100890.69;;;14.28;100.00
42125;BME280;27787;44.594;11.046;2023-04-21T07:31:35;100889.75;;;14.32;100.00
42125;BME280;27787;44.594;11.046;2023-04-21T07:34:19;100886.22;;;14.37;100.00
42125;BME280;27787;44.594;11.046;2023-04-21T07:37:04;100892.38;;;14.41;100.00
42125;BME280;27787;44.594;11.046;2023-04-21T07:39:48;100889.75;;;14.45;100.00
42125;BME280;27787;44.594;11.046;2023-04-21T07:42:33;100892.34;;;14.50;100.00
42125;BME280;27787;44.594;11.046;2023-04-21T07:45:17;100888.78;;;14.54;100.00
42125;BME280;27787;44.594;11.046;2023-04-21T07:48:02;100894.97;;;14.56;100.00
42125;BME280;27787;44.594;11.046;2023-04-21T07:50:46;100895.84;;;14.57;100.00
42125;BME280;27787;44.594;11.046;2023-04-21T07:53:30;100895.84;;;14.57;100.00
42125;BME280;27787;44.594;11.046;2023-04-21T07:56:14;100904.72;;;14.54;100.00
42125;BME280;27787;44.594;11.046;2023-04-21T07:58:59;100905.63;;;14.53;100.00
42125;BME280;27787;44.594;11.046;2023-04-21T08:01:43;100912.69;;;14.54;100.00
42125;BME280;27787;44.594;11.046;2023-04-21T08:04:27;100905.59;;;14.55;100.00
42125;BME280;27787;44.594;11.046;2023-04-21T08:07:11;100918.84;;;14.62;100.00
42125;BME280;27787;44.594;11.046;2023-04-21T08:09:56;100918.84;;;14.62;100.00
42125;BME280;27787;44.594;11.046;2023-04-21T08:12:40;100917.06;;;14.63;100.00
42125;BME280;27787;44.594;11.046;2023-04-21T08:15:24;100912.63;;;14.65;100.00
42125;BME280;27787;44.594;11.046;2023-04-21T08:18:09;100919.69;;;14.66;100.00
42125;BME280;27787;44.594;11.046;2023-04-21T08:20:53;100928.59;;;14.62;100.00
42125;BME280;27787;44.594;11.046;2023-04-21T08:23:40;100925.03;;;14.63;100.00
42125;BME280;27787;44.594;11.046;2023-04-21T08:26:24;100932.97;;;14.67;100.00
42125;BME280;27787;44.594;11.046;2023-04-21T08:29:08;100935.63;;;14.66;100.00
42125;BME280;27787;44.594;11.046;2023-04-21T08:31:53;100937.44;;;14.62;100.00
42125;BME280;27787;44.594;11.046;2023-04-21T08:34:38;100933.91;;;14.60;100.00
42125;BME280;27787;44.594;11.046;2023-04-21T08:37:22;100940.13;;;14.59;100.00
42125;BME280;27787;44.594;11.046;2023-04-21T08:40:07;100934.78;;;14.64;100.00
42125;BME280;27787;44.594;11.046;2023-04-21T08:42:51;100943.56;;;14.75;100.00
42125;BME280;27787;44.594;11.046;2023-04-21T08:45:35;100931.94;;;14.88;100.00
42125;BME280;27787;44.594;11.046;2023-04-21T08:48:21;100931.81;;;15.03;100.00
42125;BME280;27787;44.594;11.046;2023-04-21T08:51:08;100922.84;;;15.17;100.00
42125;BME280;27787;44.594;11.046;2023-04-21T08:53:55;100927.13;;;15.33;100.00
42125;BME280;27787;44.594;11.046;2023-04-21T08:56:39;100929.69;;;15.44;100.00
42125;BME280;27787;44.594;11.046;2023-04-21T08:59:23;100932.19;;;15.57;100.00
42125;BME280;27787;44.594;11.046;2023-04-21T09:02:12;100932.13;;;15.68;99.37
42125;BME280;27787;44.594;11.046;2023-04-21T09:04:58;100938.25;;;15.78;98.49
42125;BME280;27787;44.594;11.046;2023-04-21T09:07:43;100931.94;;;15.85;97.08
42125;BME280;27787;44.594;11.046;2023-04-21T09:10:26;100930.13;;;15.87;96.08
42125;BME280;27787;44.594;11.046;2023-04-21T09:13:11;100940.75;;;15.88;95.06
42125;BME280;27787;44.594;11.046;2023-04-21T09:15:55;100934.50;;;15.92;95.70
42125;BME280;27787;44.594;11.046;2023-04-21T09:18:40;100939.75;;;16.02;95.91
42125;BME280;27787;44.594;11.046;2023-04-21T09:21:27;100935.19;;;16.08;95.44
42125;BME280;27787;44.594;11.046;2023-04-21T09:24:12;100937.78;;;16.14;95.41
42125;BME280;27787;44.594;11.046;2023-04-21T09:26:56;100944.00;;;16.16;94.89
42125;BME280;27787;44.594;11.046;2023-04-21T09:29:45;100941.28;;;16.19;95.22
42125;BME280;27787;44.594;11.046;2023-04-21T09:32:40;100944.78;;;16.23;95.46
42125;BME280;27787;44.594;11.046;2023-04-21T09:35:28;100935.84;;;16.29;94.93
42125;BME280;27787;44.594;11.046;2023-04-21T09:38:13;100933.13;;;16.32;94.08
42125;BME280;27787;44.594;11.046;2023-04-21T09:40:57;100933.13;;;16.32;93.47
42125;BME280;27787;44.594;11.046;2023-04-21T09:43:42;100938.47;;;16.30;92.94
42125;BME280;27787;44.594;11.046;2023-04-21T09:46:28;100938.53;;;16.26;91.47
42125;BME280;27787;44.594;11.046;2023-04-21T09:49:16;100942.06;;;16.28;91.84
42125;BME280;27787;44.594;11.046;2023-04-21T09:52:01;100931.31;;;16.34;92.22
42125;BME280;27787;44.594;11.046;2023-04-21T09:54:52;100930.34;;;16.41;92.65
42125;BME280;27787;44.594;11.046;2023-04-21T09:57:40;100931.13;;;16.47;92.00
42125;BME280;27787;44.594;11.046;2023-04-21T10:00:27;100928.38;;;16.52;91.77
42125;BME280;27787;44.594;11.046;2023-04-21T10:03:13;100929.22;;;16.57;91.21
42125;BME280;27787;44.594;11.046;2023-04-21T10:06:00;100929.09;;;16.65;90.57
42125;BME280;27787;44.594;11.046;2023-04-21T10:08:45;100920.22;;;16.67;88.91
42125;BME280;27787;44.594;11.046;2023-04-21T10:11:29;100916.59;;;16.71;88.53
42125;BME280;27787;44.594;11.046;2023-04-21T10:14:15;100910.31;;;16.74;86.96
42125;BME280;27787;44.594;11.046;2023-04-21T10:17:05;100910.28;;;16.77;85.95
42125;BME280;27787;44.594;11.046;2023-04-21T10:22:35;100901.34;;;16.79;83.59
42125;BME280;27787;44.594;11.046;2023-04-21T10:25:21;100905.66;;;16.88;83.80
42125;BME280;27787;44.594;11.046;2023-04-21T10:28:05;100906.41;;;16.96;83.99
42125;BME280;27787;44.594;11.046;2023-04-21T10:30:49;100909.06;;;16.98;82.70
42125;BME280;27787;44.594;11.046;2023-04-21T10:33:34;100907.22;;;17.01;82.80
42125;BME280;27787;44.594;11.046;2023-04-21T10:36:23;100902.69;;;17.05;83.04
42125;BME280;27787;44.594;11.046;2023-04-21T10:39:07;100910.69;;;17.08;82.68
42125;BME280;27787;44.594;11.046;2023-04-21T10:41:55;100905.34;;;17.08;82.27
42125;BME280;27787;44.594;11.046;2023-04-21T10:45:17;100908.78;;;17.13;83.58
42125;BME280;27787;44.594;11.046;2023-04-21T10:47:54;100913.09;;;17.22;83.71
42125;BME280;27787;44.594;11.046;2023-04-21T10:50:38;100909.47;;;17.26;82.58
42125;BME280;27787;44.594;11.046;2023-04-21T10:53:24;100910.25;;;17.31;82.03
42125;BME280;27787;44.594;11.046;2023-04-21T10:56:08;100911.09;;;17.34;82.22
42125;BME280;27787;44.594;11.046;2023-04-21T10:58:53;100913.78;;;17.34;81.65
42125;BME280;27787;44.594;11.046;2023-04-21T11:01:39;100904.84;;;17.35;80.95
42125;BME280;27787;44.594;11.046;2023-04-21T11:04:24;100909.34;;;17.33;79.94
42125;BME280;27787;44.594;11.046;2023-04-21T11:07:16;100907.59;;;17.32;80.04
42125;BME280;27787;44.594;11.046;2023-04-21T11:12:47;100907.69;;;17.26;79.10
42125;BME280;27787;44.594;11.046;2023-04-21T11:15:31;100898.81;;;17.24;79.35
42125;BME280;27787;44.594;11.046;2023-04-21T11:18:16;100904.25;;;17.20;78.80
42125;BME280;27787;44.594;11.046;2023-04-21T11:21:12;100894.34;;;17.26;79.12
42125;BME280;27787;44.594;11.046;2023-04-21T11:24:00;100895.13;;;17.31;78.35
42125;BME280;27787;44.594;11.046;2023-04-21T11:26:44;100894.19;;;17.35;78.12
42125;BME280;27787;44.594;11.046;2023-04-21T11:29:28;100894.97;;;17.40;78.21
42125;BME280;27787;44.594;11.046;2023-04-21T11:32:13;100894.88;;;17.44;77.35
42125;BME280;27787;44.594;11.046;2023-04-21T11:34:58;100889.63;;;17.40;76.58
42125;BME280;27787;44.594;11.046;2023-04-21T11:37:42;100887.84;;;17.41;76.37
42125;BME280;27787;44.594;11.046;2023-04-21T11:40:26;100876.25;;;17.42;76.83
42125;BME280;27787;44.594;11.046;2023-04-21T11:43:11;100880.75;;;17.40;76.86
42125;BME280;27787;44.594;11.046;2023-04-21T11:46:30;100874.59;;;17.36;77.50
42125;BME280;27787;44.594;11.046;2023-04-21T11:49:15;100874.63;;;17.35;78.54
42125;BME280;27787;44.594;11.046;2023-04-21T11:52:01;100872.84;;;17.34;77.30
42125;BME280;27787;44.594;11.046;2023-04-21T11:54:45;100873.81;;;17.30;77.46
42125;BME280;27787;44.594;11.046;2023-04-21T11:57:31;100869.56;;;17.18;77.44
42125;BME280;27787;44.594;11.046;2023-04-21T12:00:16;100864.31;;;17.14;78.00
42125;BME280;27787;44.594;11.046;2023-04-21T12:03:00;100865.19;;;17.14;79.16
42125;BME280;27787;44.594;11.046;2023-04-21T12:05:45;100875.78;;;17.20;78.94
42125;BME280;27787;44.594;11.046;2023-04-21T12:08:30;100872.13;;;17.24;78.46
42125;BME280;27787;44.594;11.046;2023-04-21T12:11:16;100873.78;;;17.31;78.27
42125;BME280;27787;44.594;11.046;2023-04-21T12:14:00;100863.81;;;17.41;78.07
42125;BME280;27787;44.594;11.046;2023-04-21T12:16:48;100870.75;;;17.51;77.93
42125;BME280;27787;44.594;11.046;2023-04-21T12:19:36;100872.28;;;17.63;77.37
42125;BME280;27787;44.594;11.046;2023-04-21T12:22:22;100879.28;;;17.72;75.92
42125;BME280;27787;44.594;11.046;2023-04-21T12:25:08;100879.16;;;17.78;75.01
42125;BME280;27787;44.594;11.046;2023-04-21T12:27:56;100875.41;;;17.86;72.16
42125;BME280;27787;44.594;11.046;2023-04-21T12:30:40;100871.84;;;17.87;70.76
42125;BME280;27787;44.594;11.046;2023-04-21T12:33:24;100874.41;;;17.92;71.95
42125;BME280;27787;44.594;11.046;2023-04-21T12:36:08;100867.94;;;18.02;72.67
42125;BME280;27787;44.594;11.046;2023-04-21T12:38:53;100860.59;;;18.13;74.18
42125;BME280;27787;44.594;11.046;2023-04-21T12:41:38;100864.81;;;18.23;73.90
42125;BME280;27787;44.594;11.046;2023-04-21T12:44:22;100865.53;;;18.30;73.70
42125;BME280;27787;44.594;11.046;2023-04-21T12:47:06;100870.88;;;18.30;72.73
42125;BME280;27787;44.594;11.046;2023-04-21T12:49:51;100862.78;;;18.33;72.70
42125;BME280;27787;44.594;11.046;2023-04-21T12:52:34;100862.75;;;18.35;72.37
42125;BME280;27787;44.594;11.046;2023-04-21T12:55:20;100860.97;;;18.35;71.64
42125;BME280;27787;44.594;11.046;2023-04-21T12:58:04;100860.97;;;18.35;71.12
42125;BME280;27787;44.594;11.046;2023-04-21T13:00:49;100858.28;;;18.35;70.93
42125;BME280;27787;44.594;11.046;2023-04-21T13:03:33;100858.28;;;18.35;71.29
42125;BME280;27787;44.594;11.046;2023-04-21T13:06:18;100857.41;;;18.36;71.77
42125;BME280;27787;44.594;11.046;2023-04-21T13:09:03;100868.19;;;18.32;71.90
42125;BME280;27787;44.594;11.046;2023-04-21T13:11:47;100859.34;;;18.28;71.82
42125;BME280;27787;44.594;11.046;2023-04-21T13:14:32;100864.69;;;18.28;71.11
42125;BME280;27787;44.594;11.046;2023-04-21T13:17:16;100861.19;;;18.26;72.03
42125;BME280;27787;44.594;11.046;2023-04-21T13:20:01;100846.91;;;18.27;72.73
42125;BME280;27787;44.594;11.046;2023-04-21T13:22:45;100847.59;;;18.37;73.51
42125;BME280;27787;44.594;11.046;2023-04-21T13:25:31;100841.03;;;18.48;74.65
42125;BME280;27787;44.594;11.046;2023-04-21T13:28:15;100846.97;;;18.61;76.42
42125;BME280;27787;44.594;11.046;2023-04-21T13:31:00;100840.56;;;18.70;76.95
42125;BME280;27787;44.594;11.046;2023-04-21T13:33:45;100835.22;;;18.70;74.75
42125;BME280;27787;44.594;11.046;2023-04-21T13:36:29;100839.00;;;18.60;73.46
42125;BME280;27787;44.594;11.046;2023-04-21T13:39:15;100831.94;;;18.57;74.18
42125;BME280;27787;44.594;11.046;2023-04-21T13:41:59;100839.28;;;18.47;75.80
42125;BME280;27787;44.594;11.046;2023-04-21T13:44:44;100837.50;;;18.48;76.83
42125;BME280;27787;44.594;11.046;2023-04-21T13:47:30;100840.13;;;18.51;77.11
42125;BME280;27787;44.594;11.046;2023-04-21T13:50:14;100832.94;;;18.53;74.23
42125;BME280;27787;44.594;11.046;2023-04-21T13:52:59;100831.81;;;18.62;72.58
42125;BME280;27787;44.594;11.046;2023-04-21T13:55:43;100835.22;;;18.70;70.04
42125;BME280;27787;44.594;11.046;2023-04-21T13:58:27;100828.78;;;18.78;68.77
42125;BME280;27787;44.594;11.046;2023-04-21T14:01:13;100818.88;;;18.82;67.68
42125;BME280;27787;44.594;11.046;2023-04-21T14:03:57;100821.34;;;18.90;67.33
42125;BME280;27787;44.594;11.046;2023-04-21T14:06:41;100820.22;;;18.98;65.53
42125;BME280;27787;44.594;11.046;2023-04-21T14:09:25;100817.22;;;19.10;65.05